Time;durP1;ratioP1;P1;durP2;ratioP2;P2;SDS_P1;SDS_P2;PMS_P1;PMS_P2;Temp;Humidity;BMP_temperature;BMP_pressure;BME280_temperature;BME280_humidity;BME280_pressure;Samples;Min_cycle;Max_cycle;Signal;HPM_P1;HPM_P2
2021/05/10 00:00:57;;;;;;;;;;;;;;;7.30;45.77;100247.13;1788724;78;20145;-66
2021/05/10 00:03:25;;;;;;;;;;;;;;;7.28;45.90;100250.36;1822094;78;20219;-66
2021/05/10 00:05:52;;;;;;;;;;;;;;;7.25;46.11;100251.05;1811856;78;20157;-66
2021/05/10 00:08:22;;;;;;;;;;;;;;;7.19;46.45;100247.91;1799352;78;20153;-66
2021/05/10 00:10:51;;;;;;;;;;;;;;;7.13;46.86;100246.23;1799786;78;20141;-66
2021/05/10 00:13:20;;;;;;;;;;;;;;;7.06;47.11;100254.19;1810220;78;20140;-66
2021/05/10 00:15:49;;;;;;;;;;;;;;;6.98;47.46;100254.75;1816493;78;20228;-66
2021/05/10 00:18:18;;;;;;;;;;;;;;;6.91;47.85;100254.34;1806681;78;20232;-66
2021/05/10 00:20:48;;;;;;;;;;;;;;;6.83;48.88;100251.89;1826079;78;20384;-66
2021/05/10 00:23:16;;;;;;;;;;;;;;;6.71;50.14;100245.25;1813443;78;20149;-66
2021/05/10 00:25:44;;;;;;;;;;;;;;;6.61;51.23;100248.18;1809163;78;20212;-66
2021/05/10 00:28:13;;;;;;;;;;;;;;;6.53;52.09;100251.36;1797907;78;20141;-66
2021/05/10 00:30:40;;;;;;;;;;;;;;;6.45;52.79;100249.72;1756503;79;20223;-66
2021/05/10 00:33:07;;;;;;;;;;;;;;;6.37;53.32;100250.27;1827586;79;20161;-66
2021/05/10 00:35:35;;;;;;;;;;;;;;;6.31;53.81;100255.95;1812048;78;20196;-66
2021/05/10 00:38:03;;;;;;;;;;;;;;;6.24;54.13;100246.81;1806414;78;20236;-66
2021/05/10 00:40:32;;;;;;;;;;;;;;;6.18;54.30;100240.68;1799190;78;20121;-66
2021/05/10 00:43:01;;;;;;;;;;;;;;;6.16;54.91;100243.89;1825504;79;20132;-66
2021/05/10 00:45:28;;;;;;;;;;;;;;;6.14;55.28;100248.41;1788461;78;20150;-66
2021/05/10 00:47:57;;;;;;;;;;;;;;;6.12;55.55;100252.93;1806155;78;20136;-66
2021/05/10 00:50:26;;;;;;;;;;;;;;;6.11;55.33;100249.92;1821320;78;20172;-66
2021/05/10 00:52:54;;;;;;;;;;;;;;;6.11;55.36;100249.92;1816809;78;20137;-66
2021/05/10 00:55:24;;;;;;;;;;;;;;;6.08;55.64;100256.69;1826862;79;20413;-66
2021/05/10 00:58:01;;;;;;;;;;;;;;;6.06;56.09;100262.52;1794155;79;20160;-66
2021/05/10 01:00:25;;;;;;;;;;;;;;;6.01;56.68;100263.68;1802878;78;20133;-66
2021/05/10 01:02:52;;;;;;;;;;;;;;;5.97;57.15;100260.91;1801626;78;20141;-66
2021/05/10 01:05:20;;;;;;;;;;;;;;;5.94;56.90;100259.75;1812035;78;20152;-66
2021/05/10 01:07:48;;;;;;;;;;;;;;;5.95;56.86;100264.56;1787490;79;20132;-66
2021/05/10 01:10:18;;;;;;;;;;;;;;;5.95;56.72;100270.67;1810172;78;20132;-66
2021/05/10 01:12:47;;;;;;;;;;;;;;;5.94;56.47;100271.56;1804571;78;20137;-66
2021/05/10 01:15:17;;;;;;;;;;;;;;;5.93;55.98;100269.04;1821038;78;20452;-66
2021/05/10 01:17:45;;;;;;;;;;;;;;;5.93;56.22;100271.66;1825623;78;20172;-66
2021/05/10 01:20:15;;;;;;;;;;;;;;;5.93;56.81;100267.73;1794453;78;20218;-66
2021/05/10 01:22:52;;;;;;;;;;;;;;;5.91;56.79;100267.86;1789032;79;20149;-66
2021/05/10 01:25:24;;;;;;;;;;;;;;;5.94;56.53;100272.05;1827021;79;20137;-66
2021/05/10 01:27:53;;;;;;;;;;;;;;;5.94;56.67;100268.95;1821911;78;20160;-66
2021/05/10 01:30:31;;;;;;;;;;;;;;;5.94;57.78;100265.48;1778006;78;20125;-66
2021/05/10 01:32:59;;;;;;;;;;;;;;;5.92;58.46;100278.71;1805529;78;20393;-66
2021/05/10 01:35:29;;;;;;;;;;;;;;;5.86;59.40;100273.88;1827261;79;20137;-66
2021/05/10 01:37:57;;;;;;;;;;;;;;;5.81;60.28;100282.53;1821049;78;20153;-66
2021/05/10 01:40:28;;;;;;;;;;;;;;;5.72;61.00;100280.04;1820692;78;20137;-66
2021/05/10 01:42:57;;;;;;;;;;;;;;;5.64;63.09;100283.66;1823335;78;20236;-66
2021/05/10 01:45:24;;;;;;;;;;;;;;;5.58;65.63;100284.91;1824904;78;20141;-66
2021/05/10 01:47:58;;;;;;;;;;;;;;;5.52;66.41;100281.38;1811501;78;20492;-66
2021/05/10 01:50:25;;;;;;;;;;;;;;;5.49;66.30;100284.20;1790956;79;20233;-66
2021/05/10 01:52:54;;;;;;;;;;;;;;;5.44;65.97;100288.89;1810420;78;20562;-66
2021/05/10 01:55:23;;;;;;;;;;;;;;;5.38;65.95;100286.20;1816441;78;20121;-66
2021/05/10 01:57:55;;;;;;;;;;;;;;;5.36;64.84;100287.25;1797750;78;20149;-66
2021/05/10 02:00:30;;;;;;;;;;;;;;;5.33;64.01;100289.62;1806858;78;20137;-66
2021/05/10 02:03:02;;;;;;;;;;;;;;;5.33;63.05;100285.69;1826447;78;20231;-66
2021/05/10 02:05:30;;;;;;;;;;;;;;;5.34;62.54;100289.14;1826228;78;20149;-66
2021/05/10 02:07:59;;;;;;;;;;;;;;;5.35;62.32;100293.42;1789026;78;20149;-66
2021/05/10 02:10:31;;;;;;;;;;;;;;;5.35;62.92;100292.12;1811541;78;20141;-66
2021/05/10 02:13:07;;;;;;;;;;;;;;;5.34;63.38;100291.28;1806856;78;20145;-66
2021/05/10 02:15:39;;;;;;;;;;;;;;;5.33;63.67;100299.25;1819465;78;20128;-66
2021/05/10 02:18:06;;;;;;;;;;;;;;;5.31;63.84;100305.06;1826190;78;20247;-66
2021/05/10 02:20:34;;;;;;;;;;;;;;;5.29;63.98;100300.39;1805347;78;20200;-66
2021/05/10 02:23:08;;;;;;;;;;;;;;;5.28;63.52;100300.03;1797749;78;20160;-66
2021/05/10 02:25:37;;;;;;;;;;;;;;;5.25;63.50;100297.98;1809187;78;20129;-66
2021/05/10 02:28:05;;;;;;;;;;;;;;;5.24;63.44;100309.40;1808554;78;20448;-66
2021/05/10 02:30:33;;;;;;;;;;;;;;;5.22;64.31;100306.04;1797698;78;20224;-66
2021/05/10 02:33:01;;;;;;;;;;;;;;;5.19;64.41;100308.02;1797731;78;20217;-66
2021/05/10 02:35:31;;;;;;;;;;;;;;;5.19;64.84;100308.02;1819774;78;20128;-66
2021/05/10 02:37:58;;;;;;;;;;;;;;;5.17;65.50;100308.59;1817018;78;20136;-66
2021/05/10 02:40:25;;;;;;;;;;;;;;;5.19;66.37;100308.02;1811963;78;20161;-66
2021/05/10 02:42:53;;;;;;;;;;;;;;;5.20;63.56;100303.98;1797717;78;20165;-66
2021/05/10 02:45:22;;;;;;;;;;;;;;;5.24;61.90;100309.40;1797780;78;20228;-66
2021/05/10 02:47:50;;;;;;;;;;;;;;;5.31;61.31;100311.63;1811919;78;20322;-66
2021/05/10 02:50:20;;;;;;;;;;;;;;;5.35;62.04;100320.97;1821200;78;20259;-66
2021/05/10 02:52:48;;;;;;;;;;;;;;;5.37;63.17;100317.33;1810703;78;20168;-66
2021/05/10 02:55:16;;;;;;;;;;;;;;;5.40;63.72;100313.65;1817756;78;20136;-66
2021/05/10 02:57:45;;;;;;;;;;;;;;;5.42;63.31;100320.50;1817129;79;20196;-66
2021/05/10 03:00:14;;;;;;;;;;;;;;;5.49;62.66;100319.61;1826218;78;20431;-66
2021/05/10 03:02:41;;;;;;;;;;;;;;;5.52;62.56;100322.05;1818061;79;20228;-66
2021/05/10 03:05:10;;;;;;;;;;;;;;;5.56;61.12;100327.45;1826942;79;20151;-66
2021/05/10 03:07:38;;;;;;;;;;;;;;;5.61;60.74;100324.07;1806975;78;20121;-66
2021/05/10 03:10:09;;;;;;;;;;;;;;;5.67;60.34;100331.14;1826852;79;20160;-64
2021/05/10 03:12:37;;;;;;;;;;;;;;;5.72;60.02;100329.07;1818571;78;20145;-65
2021/05/10 03:15:08;;;;;;;;;;;;;;;5.79;60.33;100328.56;1781933;79;20276;-64
2021/05/10 03:17:36;;;;;;;;;;;;;;;5.84;60.47;100326.95;1823971;78;20128;-64
2021/05/10 03:20:06;;;;;;;;;;;;;;;5.88;60.43;100328.91;1811957;78;20252;-64
2021/05/10 03:22:33;;;;;;;;;;;;;;;5.90;59.54;100325.70;1821942;78;20179;-64
2021/05/10 03:25:01;;;;;;;;;;;;;;;5.93;58.68;100326.80;1799078;78;20145;-64
2021/05/10 03:27:38;;;;;;;;;;;;;;;5.97;58.79;100331.79;1806860;78;20413;-64
2021/05/10 03:29:58;;;;;;;;;;;;;;;6.02;58.82;100334.09;1826215;79;20156;-64
2021/05/10 03:32:26;;;;;;;;;;;;;;;6.07;58.54;100332.48;1792549;79;20125;-64
2021/05/10 03:34:55;;;;;;;;;;;;;;;6.12;58.46;100333.02;1811687;78;20388;-64
2021/05/10 03:37:23;;;;;;;;;;;;;;;6.19;58.44;100335.58;1816022;78;20204;-64
2021/05/10 03:39:51;;;;;;;;;;;;;;;6.26;58.19;100338.64;1825757;78;20160;-64
2021/05/10 03:42:19;;;;;;;;;;;;;;;6.32;57.88;100339.08;1807087;78;20145;-64
2021/05/10 03:44:47;;;;;;;;;;;;;;;6.41;57.56;100341.53;1813179;78;20141;-65
2021/05/10 03:47:15;;;;;;;;;;;;;;;6.49;57.30;100347.56;1826215;79;20224;-64
2021/05/10 03:49:43;;;;;;;;;;;;;;;6.57;57.18;100355.78;1811734;78;20232;-64
2021/05/10 03:52:10;;;;;;;;;;;;;;;6.65;56.85;100356.08;1825788;78;20240;-64
2021/05/10 03:54:38;;;;;;;;;;;;;;;6.71;56.75;100359.59;1816465;78;20271;-64
2021/05/10 03:57:07;;;;;;;;;;;;;;;6.80;56.71;100356.80;1811113;78;20424;-64
2021/05/10 03:59:36;;;;;;;;;;;;;;;6.89;56.72;100363.22;1815163;78;20145;-64
2021/05/10 04:02:04;;;;;;;;;;;;;;;6.96;56.72;100363.16;1809345;78;20280;-65
2021/05/10 04:04:42;;;;;;;;;;;;;;;7.03;56.88;100367.01;1802563;78;20228;-65
2021/05/10 04:10:10;;;;;;;;;;;;;;;7.21;57.00;100366.19;1810570;78;20141;-64
2021/05/10 04:15:12;;;;;;;;;;;;;;;7.40;56.53;100374.91;1816951;78;20200;-65
2021/05/10 04:17:39;;;;;;;;;;;;;;;7.53;56.05;100373.55;1825926;78;20165;-65
2021/05/10 04:20:08;;;;;;;;;;;;;;;7.65;55.65;100378.38;1826952;79;20230;-65
2021/05/10 04:22:37;;;;;;;;;;;;;;;7.76;55.31;100376.66;1791066;79;20186;-65
2021/05/10 04:25:06;;;;;;;;;;;;;;;7.92;55.35;100376.84;1826835;78;20141;-65
2021/05/10 04:27:34;;;;;;;;;;;;;;;8.10;55.16;100377.27;1827385;79;20256;-65
2021/05/10 04:30:03;;;;;;;;;;;;;;;8.28;54.52;100374.54;1787768;78;20260;-65
2021/05/10 04:32:32;;;;;;;;;;;;;;;8.48;54.45;100377.02;1808119;78;20141;-65
2021/05/10 04:35:01;;;;;;;;;;;;;;;8.71;54.29;100381.82;1823509;78;20137;-65
2021/05/10 04:37:29;;;;;;;;;;;;;;;8.96;54.08;100382.56;1806712;78;20129;-65
2021/05/10 04:39:56;;;;;;;;;;;;;;;9.24;53.17;100378.58;1812119;78;20141;-65
2021/05/10 04:42:24;;;;;;;;;;;;;;;9.52;52.56;100388.25;1802217;78;20169;-65
2021/05/10 04:44:52;;;;;;;;;;;;;;;9.82;52.05;100388.00;1801890;78;20148;-65
2021/05/10 04:47:20;;;;;;;;;;;;;;;10.14;51.23;100391.11;1826271;78;20176;-65
2021/05/10 04:49:48;;;;;;;;;;;;;;;10.45;50.79;100384.12;1794342;78;20141;-65
2021/05/10 04:52:16;;;;;;;;;;;;;;;10.79;50.22;100386.05;1824972;78;20228;-67
2021/05/10 04:54:43;;;;;;;;;;;;;;;11.14;49.32;100390.56;1775170;78;20417;-65
2021/05/10 04:57:10;;;;;;;;;;;;;;;11.46;49.18;100396.52;1822949;78;20164;-65
2021/05/10 04:59:38;;;;;;;;;;;;;;;11.80;48.42;100396.61;1795273;79;20149;-65
2021/05/10 05:02:05;;;;;;;;;;;;;;;12.19;47.52;100401.94;1813882;78;20125;-65
2021/05/10 05:04:34;;;;;;;;;;;;;;;12.58;46.07;100396.08;1802124;78;20125;-65
2021/05/10 05:07:03;;;;;;;;;;;;;;;12.97;45.46;100398.60;1806266;78;20476;-65
2021/05/10 05:09:31;;;;;;;;;;;;;;;13.42;44.58;100402.83;1806456;78;20220;-65
2021/05/10 05:11:58;;;;;;;;;;;;;;;13.83;43.58;100401.42;1811027;78;20138;-65
2021/05/10 05:14:26;;;;;;;;;;;;;;;14.22;41.84;100403.77;1819156;78;20440;-65
2021/05/10 05:16:54;;;;;;;;;;;;;;;14.60;40.44;100403.56;1790982;78;20177;-65
2021/05/10 05:19:22;;;;;;;;;;;;;;;14.95;39.64;100404.76;1796202;79;20141;-65
2021/05/10 05:21:51;;;;;;;;;;;;;;;15.33;38.44;100405.23;1788374;79;20235;-65
2021/05/10 05:24:19;;;;;;;;;;;;;;;15.65;37.63;100408.99;1802211;78;20153;-65
2021/05/10 05:26:46;;;;;;;;;;;;;;;15.95;37.22;100407.25;1821948;78;20551;-65
2021/05/10 05:29:15;;;;;;;;;;;;;;;16.27;36.43;100405.08;1822371;79;20173;-65
2021/05/10 05:31:43;;;;;;;;;;;;;;;16.55;35.96;100403.38;1816177;78;20121;-65
2021/05/10 05:34:12;;;;;;;;;;;;;;;16.87;35.46;100403.36;1818270;78;20153;-65
2021/05/10 05:36:40;;;;;;;;;;;;;;;17.14;35.40;100402.59;1805313;78;20149;-65
2021/05/10 05:39:07;;;;;;;;;;;;;;;17.42;35.62;100402.13;1770752;79;20520;-66
2021/05/10 05:41:36;;;;;;;;;;;;;;;17.72;34.02;100413.81;1825802;78;20228;-65
2021/05/10 05:44:04;;;;;;;;;;;;;;;17.90;33.25;100415.39;1777662;80;20214;-65
2021/05/10 05:46:39;;;;;;;;;;;;;;;18.08;32.30;100417.27;1781646;80;20196;-65
2021/05/10 05:49:06;;;;;;;;;;;;;;;18.24;31.95;100416.31;1776543;80;20247;-65
2021/05/10 05:51:34;;;;;;;;;;;;;;;18.47;31.28;100410.09;1787456;79;20154;-65
2021/05/10 05:54:03;;;;;;;;;;;;;;;18.73;31.06;100411.83;1783533;79;20525;-65
2021/05/10 05:56:31;;;;;;;;;;;;;;;19.08;31.21;100412.14;1781718;79;20478;-66
2021/05/10 05:58:58;;;;;;;;;;;;;;;19.42;29.82;100409.89;1781636;79;20430;-65
2021/05/10 06:01:26;;;;;;;;;;;;;;;19.72;30.69;100413.31;1793100;79;20144;-66
2021/05/10 06:03:54;;;;;;;;;;;;;;;20.07;30.61;100411.63;1789046;79;20445;-65
2021/05/10 06:06:23;;;;;;;;;;;;;;;20.46;29.43;100411.66;1796997;79;20147;-65
2021/05/10 06:08:50;;;;;;;;;;;;;;;20.82;28.38;100409.86;1799592;79;20139;-65
2021/05/10 06:11:18;;;;;;;;;;;;;;;21.13;27.57;100404.86;1776967;79;20150;-65
2021/05/10 06:13:46;;;;;;;;;;;;;;;21.56;27.22;100405.12;1750863;79;20238;-65
2021/05/10 06:16:13;;;;;;;;;;;;;;;21.89;26.68;100403.03;1783999;79;20159;-66
2021/05/10 06:18:43;;;;;;;;;;;;;;;22.25;26.23;100406.70;1773914;79;20406;-66
2021/05/10 06:21:11;;;;;;;;;;;;;;;22.65;26.07;100405.34;1794603;79;20135;-66
2021/05/10 06:23:39;;;;;;;;;;;;;;;23.05;25.25;100413.36;1752678;79;20239;-66
2021/05/10 06:26:08;;;;;;;;;;;;;;;23.49;23.85;100410.06;1778582;79;20225;-66
2021/05/10 06:28:35;;;;;;;;;;;;;;;23.88;23.81;100410.91;1783823;79;20139;-66
2021/05/10 06:31:04;;;;;;;;;;;;;;;24.21;23.41;100409.32;1791916;79;20414;-66
2021/05/10 06:33:32;;;;;;;;;;;;;;;24.48;23.12;100413.95;1789413;79;20123;-66
2021/05/10 06:36:00;;;;;;;;;;;;;;;24.55;22.85;100410.70;1798829;79;20236;-66
2021/05/10 06:38:28;;;;;;;;;;;;;;;24.63;23.10;100415.53;1777947;80;20138;-65
2021/05/10 06:40:56;;;;;;;;;;;;;;;24.72;22.13;100407.43;1776420;79;20135;-66
2021/05/10 06:43:23;;;;;;;;;;;;;;;24.84;22.48;100411.56;1791780;79;20426;-64
2021/05/10 06:45:51;;;;;;;;;;;;;;;25.11;22.29;100416.98;1780607;79;20139;-65
2021/05/10 06:48:29;;;;;;;;;;;;;;;25.61;21.62;100415.97;1749449;79;20143;-65
2021/05/10 06:50:57;;;;;;;;;;;;;;;26.03;19.77;100414.64;1803669;79;20159;-65
2021/05/10 06:53:25;;;;;;;;;;;;;;;26.18;19.94;100415.55;1779928;79;20241;-65
2021/05/10 06:55:54;;;;;;;;;;;;;;;26.48;19.13;100415.45;1790934;79;20170;-65
2021/05/10 06:58:22;;;;;;;;;;;;;;;26.99;18.88;100411.75;1776533;79;20229;-65
2021/05/10 07:00:52;;;;;;;;;;;;;;;27.35;18.99;100417.12;1788562;79;20250;-65
2021/05/10 07:03:19;;;;;;;;;;;;;;;27.67;18.28;100410.13;1789017;79;20254;-65
2021/05/10 07:05:49;;;;;;;;;;;;;;;27.99;18.17;100410.98;1798323;79;20211;-66
2021/05/10 07:08:17;;;;;;;;;;;;;;;28.26;17.64;100415.25;1783906;79;20171;-65
2021/05/10 07:10:46;;;;;;;;;;;;;;;28.40;18.00;100418.44;1782768;79;20163;-66
2021/05/10 07:13:14;;;;;;;;;;;;;;;28.67;17.62;100412.33;1784759;79;20127;-66
2021/05/10 07:15:41;;;;;;;;;;;;;;;29.02;16.22;100413.89;1766471;79;20142;-66
2021/05/10 07:18:12;;;;;;;;;;;;;;;29.11;16.56;100406.11;1794009;79;20143;-66
2021/05/10 07:20:42;;;;;;;;;;;;;;;29.25;17.09;100410.66;1789083;79;20147;-66
2021/05/10 07:23:10;;;;;;;;;;;;;;;29.72;15.43;100412.27;1776640;79;20158;-66
2021/05/10 07:25:46;;;;;;;;;;;;;;;30.02;15.07;100405.48;1780011;79;20442;-66
2021/05/10 07:28:16;;;;;;;;;;;;;;;30.26;15.54;100407.28;1792077;79;20142;-66
2021/05/10 07:30:44;;;;;;;;;;;;;;;30.44;15.44;100399.81;1783793;79;20162;-66
2021/05/10 07:33:12;;;;;;;;;;;;;;;30.71;14.51;100401.89;1772523;79;20151;-66
2021/05/10 07:35:41;;;;;;;;;;;;;;;30.94;14.41;100402.03;1789041;79;20154;-66
2021/05/10 07:38:09;;;;;;;;;;;;;;;31.15;14.18;100398.02;1763714;79;20138;-66
2021/05/10 07:40:37;;;;;;;;;;;;;;;31.20;13.77;100396.67;1784543;79;20152;-66
2021/05/10 07:43:06;;;;;;;;;;;;;;;31.25;13.95;100393.94;1776642;79;20485;-66
2021/05/10 07:45:35;;;;;;;;;;;;;;;31.45;13.76;100389.08;1750272;80;20435;-66
2021/05/10 07:48:04;;;;;;;;;;;;;;;31.53;13.02;100387.76;1776688;79;20402;-66
2021/05/10 07:50:33;;;;;;;;;;;;;;;31.44;13.57;100382.52;1787952;79;20126;-66
2021/05/10 07:53:01;;;;;;;;;;;;;;;31.50;13.26;100386.40;1777409;79;20491;-66
2021/05/10 07:55:29;;;;;;;;;;;;;;;31.57;13.30;100383.38;1780542;79;20135;-66
2021/05/10 07:57:58;;;;;;;;;;;;;;;31.65;13.64;100373.86;1784339;79;20159;-66
2021/05/10 08:00:42;;;;;;;;;;;;;;;31.73;13.41;100376.04;1783802;79;20143;-66
2021/05/10 08:03:10;;;;;;;;;;;;;;;31.80;12.88;100366.19;1790710;79;20122;-66
2021/05/10 08:05:39;;;;;;;;;;;;;;;32.02;13.02;100365.42;1776481;80;20257;-66
2021/05/10 08:08:07;;;;;;;;;;;;;;;32.05;12.93;100370.88;1770815;79;20430;-66
2021/05/10 08:10:35;;;;;;;;;;;;;;;31.95;13.09;100373.05;1776580;79;20177;-66
2021/05/10 08:13:03;;;;;;;;;;;;;;;32.15;12.40;100378.24;1789907;79;20139;-66
2021/05/10 08:15:31;;;;;;;;;;;;;;;32.21;12.38;100373.03;1789990;79;20143;-66
2021/05/10 08:18:00;;;;;;;;;;;;;;;32.39;11.71;100369.72;1788884;79;20135;-66
2021/05/10 08:20:31;;;;;;;;;;;;;;;32.46;11.91;100377.66;1746607;80;20190;-66
2021/05/10 08:22:59;;;;;;;;;;;;;;;32.50;11.77;100373.27;1783728;79;20190;-66
2021/05/10 08:25:28;;;;;;;;;;;;;;;32.51;12.08;100365.33;1789749;79;20241;-66
2021/05/10 08:27:56;;;;;;;;;;;;;;;32.54;12.37;100366.69;1788390;79;20444;-67
2021/05/10 08:30:24;;;;;;;;;;;;;;;32.74;12.13;100365.28;1789162;79;20151;-65
2021/05/10 08:32:54;;;;;;;;;;;;;;;32.86;12.15;100360.84;1783943;79;20398;-66
2021/05/10 08:35:21;;;;;;;;;;;;;;;32.99;12.36;100357.49;1791229;79;20229;-66
2021/05/10 08:37:51;;;;;;;;;;;;;;;32.95;12.01;100352.31;1774495;79;20171;-67
2021/05/10 08:40:18;;;;;;;;;;;;;;;32.93;11.85;100350.41;1789933;79;20147;-66
2021/05/10 08:42:46;;;;;;;;;;;;;;;32.78;11.72;100341.72;1792590;79;20144;-66
2021/05/10 08:45:19;;;;;;;;;;;;;;;32.68;11.95;100346.69;1789178;79;20526;-66
2021/05/10 08:47:47;;;;;;;;;;;;;;;32.63;11.11;100338.48;1776522;79;20143;-67
2021/05/10 08:50:16;;;;;;;;;;;;;;;32.36;11.21;100336.09;1786479;79;20122;-66
2021/05/10 08:52:44;;;;;;;;;;;;;;;32.09;10.77;100335.84;1770702;79;20147;-66
2021/05/10 08:55:16;;;;;;;;;;;;;;;32.04;11.03;100324.94;1789021;79;20154;-66
2021/05/10 08:57:44;;;;;;;;;;;;;;;32.11;11.12;100324.11;1789072;79;20234;-66
2021/05/10 09:00:14;;;;;;;;;;;;;;;32.11;10.98;100318.64;1789026;79;20123;-67
2021/05/10 09:02:42;;;;;;;;;;;;;;;32.01;11.51;100318.61;1787086;79;20229;-67
2021/05/10 09:05:19;;;;;;;;;;;;;;;32.20;11.50;100317.52;1791341;79;20160;-66
2021/05/10 09:08:06;;;;;;;;;;;;;;;32.39;11.29;100315.55;1783805;79;20142;-67
2021/05/10 09:10:35;;;;;;;;;;;;;;;32.37;10.76;100310.35;1752937;79;20242;-67
2021/05/10 09:13:03;;;;;;;;;;;;;;;31.93;11.05;100311.78;1791476;79;20406;-67
2021/05/10 09:15:35;;;;;;;;;;;;;;;32.15;11.24;100310.67;1796416;79;20139;-67
2021/05/10 09:18:05;;;;;;;;;;;;;;;32.07;11.75;100303.05;1782237;79;20134;-67
2021/05/10 09:20:38;;;;;;;;;;;;;;;32.10;12.26;100301.95;1773160;79;20139;-66
2021/05/10 09:23:09;;;;;;;;;;;;;;;32.10;12.15;100302.50;1781569;79;20150;-67
2021/05/10 09:25:38;;;;;;;;;;;;;;;32.35;12.09;100302.97;1781731;79;20221;-66
2021/05/10 09:28:23;;;;;;;;;;;;;;;32.52;11.43;100296.36;1792326;79;20206;-67
2021/05/10 09:30:58;;;;;;;;;;;;;;;32.54;11.52;100303.73;1781722;79;20139;-67
2021/05/10 09:33:27;;;;;;;;;;;;;;;32.70;12.07;100302.61;1775865;79;20472;-67
2021/05/10 09:36:09;;;;;;;;;;;;;;;32.82;12.20;100302.27;1776626;79;20794;-67
2021/05/10 09:38:36;;;;;;;;;;;;;;;32.78;11.72;100303.94;1788661;79;20203;-67
2021/05/10 09:41:05;;;;;;;;;;;;;;;32.69;11.38;100297.70;1789023;79;20226;-67
2021/05/10 09:43:37;;;;;;;;;;;;;;;32.54;11.69;100301.81;1750220;80;20152;-67
2021/05/10 09:46:13;;;;;;;;;;;;;;;32.36;11.32;100288.21;1780231;79;20142;-66
2021/05/10 09:48:45;;;;;;;;;;;;;;;32.39;11.96;100286.27;1784961;79;20135;-66
2021/05/10 09:51:15;;;;;;;;;;;;;;;32.60;11.55;100285.69;1788486;79;20156;-66
2021/05/10 09:53:49;;;;;;;;;;;;;;;32.77;11.64;100287.23;1794813;79;20415;-66
2021/05/10 09:56:32;;;;;;;;;;;;;;;32.54;10.92;100282.66;1791341;79;20421;-65
2021/05/10 09:59:01;;;;;;;;;;;;;;;32.29;11.41;100279.47;1768633;79;20139;-66
2021/05/10 10:01:44;;;;;;;;;;;;;;;32.42;11.25;100278.88;1793143;79;20427;-66
2021/05/10 10:04:18;;;;;;;;;;;;;;;32.61;10.89;100281.84;1776532;79;20134;-66
2021/05/10 10:06:46;;;;;;;;;;;;;;;32.82;10.53;100274.89;1782140;79;20175;-66
2021/05/10 10:09:14;;;;;;;;;;;;;;;32.64;11.29;100270.86;1796362;79;20214;-66
2021/05/10 10:11:41;;;;;;;;;;;;;;;32.69;11.01;100265.38;1779749;79;20139;-66
2021/05/10 10:14:10;;;;;;;;;;;;;;;32.75;10.79;100260.16;1796214;79;20148;-66
2021/05/10 10:16:38;;;;;;;;;;;;;;;32.73;10.79;100259.59;1797689;79;20166;-66
2021/05/10 10:19:07;;;;;;;;;;;;;;;32.59;10.66;100261.33;1792115;79;20214;-68
2021/05/10 10:21:37;;;;;;;;;;;;;;;32.50;10.51;100263.23;1781054;79;20138;-67
2021/05/10 10:24:06;;;;;;;;;;;;;;;32.37;10.48;100253.45;1785285;79;20193;-66
2021/05/10 10:26:35;;;;;;;;;;;;;;;32.34;10.49;100259.47;1772595;80;20142;-66
2021/05/10 10:29:09;;;;;;;;;;;;;;;32.06;10.57;100256.27;1757629;80;20250;-67
2021/05/10 10:31:45;;;;;;;;;;;;;;;31.82;10.58;100255.48;1794048;79;20162;-67
2021/05/10 10:34:22;;;;;;;;;;;;;;;31.69;11.18;100245.12;1797014;79;20442;-67
2021/05/10 10:36:52;;;;;;;;;;;;;;;31.68;11.63;100239.36;1788760;79;20230;-67
2021/05/10 10:39:23;;;;;;;;;;;;;;;31.79;10.98;100236.08;1782113;79;20122;-66
2021/05/10 10:41:55;;;;;;;;;;;;;;;31.60;11.74;100233.09;1777931;79;20143;-66
2021/05/10 10:44:34;;;;;;;;;;;;;;;31.49;11.62;100227.63;1797638;79;20221;-66
2021/05/10 10:47:02;;;;;;;;;;;;;;;31.41;11.47;100221.33;1788157;79;20170;-67
2021/05/10 10:49:36;;;;;;;;;;;;;;;31.12;11.55;100216.41;1776630;79;20163;-66
2021/05/10 10:52:17;;;;;;;;;;;;;;;30.72;11.72;100218.48;1737203;79;20331;-67
2021/05/10 10:54:46;;;;;;;;;;;;;;;30.36;11.66;100221.11;1796650;79;20143;-66
2021/05/10 10:57:32;;;;;;;;;;;;;;;29.84;12.14;100219.98;1781854;79;20450;-66
2021/05/10 11:00:00;;;;;;;;;;;;;;;29.31;12.17;100216.28;1781797;79;20134;-67
2021/05/10 11:02:28;;;;;;;;;;;;;;;28.92;13.09;100216.45;1782849;79;20163;-67
2021/05/10 11:05:19;;;;;;;;;;;;;;;28.82;13.45;100211.19;1798811;79;20198;-66
2021/05/10 11:08:06;;;;;;;;;;;;;;;28.78;13.71;100208.67;1782772;79;20130;-67
2021/05/10 11:10:50;;;;;;;;;;;;;;;28.63;13.44;100205.80;1789157;79;20226;-65
2021/05/10 11:13:29;;;;;;;;;;;;;;;28.22;13.66;100202.55;1781734;79;20402;-66
2021/05/10 11:15:59;;;;;;;;;;;;;;;27.76;13.14;100195.94;1789242;79;20238;-66
2021/05/10 11:18:48;;;;;;;;;;;;;;;27.34;13.48;100197.72;1787629;79;20143;-66
2021/05/10 11:21:26;;;;;;;;;;;;;;;27.05;13.41;100188.26;1791544;79;20127;-67
2021/05/10 11:23:58;;;;;;;;;;;;;;;26.82;14.64;100183.79;1791321;79;20139;-67
2021/05/10 11:26:51;;;;;;;;;;;;;;;26.70;14.93;100178.94;1783660;79;20217;-66
2021/05/10 11:29:29;;;;;;;;;;;;;;;26.40;15.03;100175.08;1762359;79;20145;-67
2021/05/10 11:32:01;;;;;;;;;;;;;;;26.05;15.09;100178.14;1789131;79;20174;-66
2021/05/10 11:34:33;;;;;;;;;;;;;;;25.89;15.47;100170.73;1778923;79;20221;-66
2021/05/10 11:36:59;;;;;;;;;;;;;;;25.83;16.23;100167.60;1776632;79;20134;-66
2021/05/10 11:39:33;;;;;;;;;;;;;;;25.79;16.35;100163.19;1790376;79;20139;-66
2021/05/10 11:42:04;;;;;;;;;;;;;;;25.81;16.04;100161.61;1788792;79;20174;-66
2021/05/10 11:44:34;;;;;;;;;;;;;;;25.84;16.39;100161.14;1757714;79;20151;-66
2021/05/10 11:47:08;;;;;;;;;;;;;;;25.83;16.18;100156.27;1789238;79;20487;-65
2021/05/10 11:49:39;;;;;;;;;;;;;;;25.67;16.12;100152.91;1763349;79;20242;-66
2021/05/10 11:52:12;;;;;;;;;;;;;;;25.36;16.26;100148.97;1784153;79;20300;-66
2021/05/10 11:54:41;;;;;;;;;;;;;;;25.17;16.19;100147.38;1791972;79;20413;-66
2021/05/10 11:57:10;;;;;;;;;;;;;;;25.06;16.45;100154.41;1794205;79;20242;-66
2021/05/10 11:59:44;;;;;;;;;;;;;;;25.01;16.14;100148.88;1790464;79;20154;-66
2021/05/10 12:02:18;;;;;;;;;;;;;;;24.78;16.58;100144.22;1758156;79;20158;-68
2021/05/10 12:04:48;;;;;;;;;;;;;;;24.53;15.91;100138.44;1793244;79;20158;-65
2021/05/10 12:07:17;;;;;;;;;;;;;;;24.32;17.09;100139.73;1777263;79;20390;-66
2021/05/10 12:09:50;;;;;;;;;;;;;;;24.05;17.57;100139.75;1776436;79;20151;-66
2021/05/10 12:12:21;;;;;;;;;;;;;;;23.87;17.15;100141.41;1797198;79;20131;-66
2021/05/10 12:14:51;;;;;;;;;;;;;;;23.55;16.68;100135.27;1783943;79;20139;-66
2021/05/10 12:17:24;;;;;;;;;;;;;;;23.44;16.91;100140.88;1772638;79;20134;-66
2021/05/10 12:20:18;;;;;;;;;;;;;;;23.45;17.20;100136.61;1794360;79;20134;-66
2021/05/10 12:22:49;;;;;;;;;;;;;;;23.38;17.53;100138.53;1793074;79;20437;-66
2021/05/10 12:25:23;;;;;;;;;;;;;;;23.37;17.36;100141.45;1786674;79;20398;-66
2021/05/10 12:28:16;;;;;;;;;;;;;;;23.29;17.22;100133.11;1796486;79;20122;-65
2021/05/10 12:30:49;;;;;;;;;;;;;;;23.18;17.30;100124.39;1776797;79;20124;-66
2021/05/10 12:33:22;;;;;;;;;;;;;;;23.10;18.07;100127.34;1755577;79;20441;-66
2021/05/10 12:35:53;;;;;;;;;;;;;;;23.11;18.16;100126.31;1776523;79;20258;-66
2021/05/10 12:38:29;;;;;;;;;;;;;;;23.18;18.33;100121.69;1782679;79;20174;-65
2021/05/10 12:40:58;;;;;;;;;;;;;;;23.18;18.15;100127.09;1793605;79;20147;-66
2021/05/10 12:43:28;;;;;;;;;;;;;;;23.14;17.64;100115.91;1777339;79;20135;-66
2021/05/10 12:46:06;;;;;;;;;;;;;;;23.11;18.35;100105.55;1780752;79;20372;-66
2021/05/10 12:48:39;;;;;;;;;;;;;;;23.10;18.32;100104.42;1782177;79;20176;-66
2021/05/10 12:51:10;;;;;;;;;;;;;;;23.17;19.28;100106.53;1780250;79;20226;-67
2021/05/10 12:53:56;;;;;;;;;;;;;;;23.24;18.52;100104.61;1799520;79;20139;-66
2021/05/10 12:56:25;;;;;;;;;;;;;;;23.29;17.86;100099.39;1788768;79;20317;-66
2021/05/10 12:58:53;;;;;;;;;;;;;;;23.29;17.74;100100.73;1781429;79;20139;-66
2021/05/10 13:01:25;;;;;;;;;;;;;;;23.29;17.96;100102.09;1793780;79;20139;-66